AirNav   Pilot Hours Calculator
 
 739 users online  

67FL Myakka Head Airport
Zolfo Springs, Florida, USA

GOING TO ZOLFO SPRINGS?


FAA INFORMATION EFFECTIVE 20 MAY 2021

Location

FAA Identifier: 67FL
Lat/Long: 27-27-20.0000N 082-06-18.0000W
27-27.333333N 082-06.300000W
27.4555556,-82.1050000
(estimated)
Elevation: 80 ft. / 24 m (estimated)
Variation: 03W (1995)
From city: 21 miles NE of ZOLFO SPRINGS, FL
Time zone: UTC -4 (UTC -5 during Standard Time)
Zip code: 34251

Airport Operations

Airport use: Private use. Permission required prior to landing
Activation date: 06/1998
Control tower: no
ARTCC: MIAMI CENTER
FSS: SAINT PETERSBURG FLIGHT SERVICE STATION
Attendance: UNATNDD
Segmented circle: no

Nearby radio navigation aids

VOR radial/distance  VOR name  Freq  Var
SRQr088/24.6SARASOTA VOR/DME117.0005W
LALr188/32.2LAKELAND VORTAC116.0001E
PGDr355/(32.9)PUNTA GORDA VOR110.2006W

Airport Services

Runway Information

Runway 18/36

Dimensions: 3400 x 130 ft. / 1036 x 40 m
Surface: turf
RUNWAY 18  RUNWAY 36
Traffic pattern: leftleft

Airport Ownership and Management from official FAA records

Ownership: Privately-owned
Owner: J. MARVIN TAYLOR
4670 KERSEY ROAD
ONA, FL 33865
Phone 941-322-1129
Manager: J. MARVIN TAYLOR
4670 KERSEY ROAD
ONA, FL 33865
Phone 941-322-1129

Airport Operational Statistics

Aircraft based on the field: 6
Single engine airplanes: 3
Gliders airplanes: 1
Ultralights: 2
    

Additional Remarks

FOR CD CTC MIAMI ARTCC AT 305-716-1731.

Instrument Procedures

There are no published instrument procedures at 67FL.

Some nearby airports with instrument procedures:

KCHN - Wauchula Municipal Airport (12 nm E)
X06 - Arcadia Municipal Airport (21 nm SE)
KSRQ - Sarasota/Bradenton International Airport (24 nm W)
KVNC - Venice Municipal Airport (29 nm SW)
KAVO - Avon Park Executive Airport (32 nm E)
 
Loc | Ops | Rwys | IFR | FBO | Links
Com | Nav | Svcs | Stats | Notes


 
Area around 67FL (Myakka Head Airport)
 
Road maps at: MapQuest Bing Google
 
Aerial photo
No photo
 
Sectional chart

 
Airport distance calculator
Flying to Myakka Head Airport? Find the distance to fly.

From to 67FL

Sunrise and sunset
Times for 12-Jun-2021
 Local
(UTC-4)
 Zulu
(UTC)
Morning civil twilight06:0710:07
Sunrise06:3410:34
Sunset20:2300:23
Evening civil twilight20:4900:49

Current date and time
Zulu (UTC)  13-Jun-2021 03:47:19
Local (UTC-4)  12-Jun-2021 23:47:19
 
METAR
KSRQ 
25nm W 
130253Z 27007KT 10SM CLR 28/22 A2990 RMK AO2 SLP125 T02780217 53012
KVNC 
29nm SW 
130335Z AUTO 28005KT 7SM SCT022 SCT027 28/24 A2993 RMK AO2
KLAL 
31nm N 
130335Z AUTO 25003KT 10SM CLR 25/21 A2994 RMK AO2 PNO
KMCF 
32nm NW 
130256Z AUTO 25004KT 10SM CLR 27/22 A2989 RMK AO2 SLP124 T02740221 53013 FZRANO $
KPGD 
33nm S 
130253Z AUTO 26004KT 10SM CLR 28/24 A2993 RMK AO2 SLP132 T02780239 51011
KPCM 
33nm N 
130315Z AUTO 25003KT 10SM CLR 26/22 A2996 RMK AO2
KTPF 
33nm NW 
130315Z AUTO 28006KT 10SM SCT022 OVC110 28/23 A2994 RMK AO2
KSPG 
34nm NW 
130253Z AUTO 25008KT 10SM CLR 28/23 A2990 RMK AO2 SLP125 T02830233 53013 $
KBOW 
34nm NE 
130315Z AUTO 21004KT 10SM CLR 25/21 A2993 RMK AO2
KVDF 
36nm N 
130335Z AUTO 00000KT 10SM SCT026 SCT038 27/24 A2994 RMK AO2
TAF
KSRQ 
25nm W 
121731Z 1218/1318 27010KT P6SM SCT035 SCT250 FM130800 24008KT P6SM VCSH SCT025 BKN120 FM131400 25012KT P6SM VCTS SCT030CB BKN100
NOTAMs
Click for the latest NOTAMs
NOTAMs are issued by the DoD/FAA and will open in a separate window not controlled by AirNav.

 

 
 

Would you like to see your business listed on this page?

 If your business provides an interesting product or service to pilots, flight crews, aircraft, or users of the Myakka Head Airport, you should consider listing it here.  To start the listing process, click on the button below
 
Add a business
 

Other Pages about Myakka Head Airport

Update a link
 
Copyright © AirNav, LLC. All rights reserved. Privacy Policy  Contact